createdAt,value
2022-09-23T00:00:58.087Z,101135.34
2022-09-23T00:03:24.469Z,101132.38
2022-09-23T00:05:59.285Z,101121.97
2022-09-23T00:08:25.832Z,101122.56
2022-09-23T00:10:52.201Z,101121.66
2022-09-23T00:13:18.795Z,101107.69
2022-09-23T00:15:45.167Z,101114.78
2022-09-23T00:18:11.521Z,101120.44
2022-09-23T00:20:37.918Z,101113.44
2022-09-23T00:23:04.309Z,101113.47
2022-09-23T00:25:30.676Z,101113.44
2022-09-23T00:27:57.196Z,101116.88
2022-09-23T00:30:25.212Z,101101.22
2022-09-23T00:32:51.683Z,101103.69
2022-09-23T00:35:18.179Z,101096.66
2022-09-23T00:37:44.534Z,101101.06
2022-09-23T00:40:10.987Z,101102.78
2022-09-23T00:42:37.538Z,101104.47
2022-09-23T00:45:04.524Z,101107.94
2022-09-23T00:47:53.676Z,101101.53
2022-09-23T00:50:28.804Z,101102.63
2022-09-23T00:52:58.214Z,101105.19
2022-09-23T00:55:36.531Z,101093.78
2022-09-23T00:58:04.901Z,101095.53
2022-09-23T01:00:31.392Z,101092.91
2022-09-23T01:02:57.761Z,101093.88
2022-09-23T01:05:24.188Z,101090.53
2022-09-23T01:07:50.895Z,101093.09
2022-09-23T01:10:17.878Z,101090.31
2022-09-23T01:13:07.704Z,101089.38
2022-09-23T01:15:48.401Z,101083.84
2022-09-23T01:18:40.396Z,101079.63
2022-09-23T01:21:18.518Z,101077.78
2022-09-23T01:24:19.038Z,101072.63
2022-09-23T01:27:02.432Z,101066.75
2022-09-23T01:29:56.854Z,101060.66
2022-09-23T01:33:02.389Z,101062.41
2022-09-23T01:35:42.438Z,101074.84
2022-09-23T01:38:31.517Z,101067.16
2022-09-23T01:41:14.218Z,101064.69
2022-09-23T01:43:54.186Z,101055.34
2022-09-23T01:46:26.117Z,101061.00
2022-09-23T01:49:04.756Z,101045.41
2022-09-23T01:51:37.364Z,101051.03
2022-09-23T01:54:13.338Z,101046.06
2022-09-23T01:56:45.961Z,101040.16
2022-09-23T01:59:18.566Z,101044.69
2022-09-23T02:01:57.303Z,101053.47
2022-09-23T02:04:32.642Z,101055.47
2022-09-23T02:07:04.134Z,101055.66
2022-09-23T02:09:41.114Z,101061.81
2022-09-23T02:12:16.632Z,101059.31
2022-09-23T02:14:53.087Z,101061.16
2022-09-23T02:17:46.332Z,101056.13
2022-09-23T02:20:15.888Z,101058.00
2022-09-23T02:23:02.060Z,101054.47
2022-09-23T02:25:40.525Z,101052.91
2022-09-23T02:28:12.121Z,101052.91
2022-09-23T02:30:45.189Z,101047.56
2022-09-23T02:33:21.906Z,101042.47
2022-09-23T02:36:03.518Z,101043.47
2022-09-23T02:38:46.358Z,101028.56
2022-09-23T02:41:29.015Z,101023.41
2022-09-23T02:44:08.895Z,101026.84
2022-09-23T02:46:37.003Z,101018.94
2022-09-23T02:49:11.480Z,101015.47
2022-09-23T02:51:39.621Z,101011.19
2022-09-23T02:54:09.256Z,100995.47
2022-09-23T02:56:35.628Z,100993.63
2022-09-23T02:59:02.229Z,100993.72
2022-09-23T03:01:47.446Z,100989.34
2022-09-23T03:04:41.793Z,100984.16
2022-09-23T03:07:39.620Z,100965.88
2022-09-23T03:10:21.217Z,100971.25
2022-09-23T03:13:02.843Z,100964.38
2022-09-23T03:15:54.650Z,100960.06
2022-09-23T03:18:31.553Z,100954.03
2022-09-23T03:21:05.055Z,100940.19
2022-09-23T03:23:35.475Z,100927.16
2022-09-23T03:26:08.141Z,100921.94
2022-09-23T03:28:38.854Z,100927.22
2022-09-23T03:31:06.018Z,100929.84
2022-09-23T03:33:34.180Z,100950.75
2022-09-23T03:36:06.598Z,100943.94
2022-09-23T03:38:39.638Z,100942.28
2022-09-23T03:41:11.020Z,100938.00
2022-09-23T03:43:39.175Z,100931.91
2022-09-23T03:46:05.887Z,100937.13
2022-09-23T03:48:32.844Z,100931.16
2022-09-23T03:51:01.299Z,100923.34
2022-09-23T03:53:27.693Z,100923.34
2022-09-23T03:55:54.123Z,100926.88
2022-09-23T03:58:20.513Z,100919.03
2022-09-23T04:00:46.962Z,100916.41
2022-09-23T04:03:13.378Z,100915.53
2022-09-23T04:05:39.723Z,100913.78
2022-09-23T04:08:08.033Z,100911.16
2022-09-23T04:10:34.428Z,100909.34
2022-09-23T04:13:00.781Z,100903.25
2022-09-23T04:15:27.193Z,100886.53
2022-09-23T04:17:53.560Z,100887.25
2022-09-23T04:20:19.916Z,100889.75
2022-09-23T04:22:46.298Z,100888.75
2022-09-23T04:25:12.749Z,100886.00
2022-09-23T04:27:39.079Z,100880.59
2022-09-23T04:30:06.137Z,100857.72
2022-09-23T04:32:32.501Z,100835.72
2022-09-23T04:34:58.900Z,100827.72
2022-09-23T04:37:25.271Z,100826.81
2022-09-23T04:39:51.653Z,100830.34
2022-09-23T04:42:18.067Z,100829.44
2022-09-23T04:44:44.412Z,100839.88
2022-09-23T04:47:10.889Z,100826.69
2022-09-23T04:49:37.278Z,100825.84
2022-09-23T04:52:03.865Z,100815.28
2022-09-23T04:54:30.248Z,100816.81
2022-09-23T04:56:56.821Z,100824.91
2022-09-23T04:59:23.316Z,100827.56
2022-09-23T05:01:49.778Z,100831.75
2022-09-23T05:04:16.188Z,100838.50
2022-09-23T05:06:42.529Z,100833.25
2022-09-23T05:09:09.067Z,100818.44
2022-09-23T05:11:35.833Z,100827.97
2022-09-23T05:14:02.343Z,100828.66
2022-09-23T05:16:29.198Z,100822.44
2022-09-23T05:18:55.628Z,100820.75
2022-09-23T05:21:24.025Z,100818.16
2022-09-23T05:23:52.998Z,100822.34
2022-09-23T05:26:20.471Z,100822.09
2022-09-23T05:28:46.961Z,100820.66
2022-09-23T05:31:20.083Z,100812.88
2022-09-23T05:33:52.126Z,100820.72
2022-09-23T05:36:20.160Z,100819.09
2022-09-23T05:38:46.975Z,100807.06
2022-09-23T05:41:13.596Z,100813.66
2022-09-23T05:43:40.439Z,100820.00
2022-09-23T05:46:26.036Z,100818.72
2022-09-23T05:48:52.421Z,100818.53
2022-09-23T05:51:21.334Z,100809.53
2022-09-23T05:53:48.678Z,100814.63
2022-09-23T05:56:17.701Z,100800.59
2022-09-23T05:58:44.614Z,100803.13
2022-09-23T06:01:16.690Z,100798.56
2022-09-23T06:03:46.546Z,100798.25
2022-09-23T06:06:14.367Z,100804.00
2022-09-23T06:08:41.841Z,100803.63
2022-09-23T06:11:08.683Z,100811.44
2022-09-23T06:13:36.061Z,100814.34
2022-09-23T06:16:03.260Z,100820.31
2022-09-23T06:18:29.804Z,100817.84
2022-09-23T06:20:56.247Z,100828.63
2022-09-23T06:23:25.553Z,100826.69
2022-09-23T06:25:53.039Z,100840.50
2022-09-23T06:28:19.471Z,100841.03
2022-09-23T06:30:45.886Z,100844.22
2022-09-23T06:33:12.365Z,100855.09
2022-09-23T06:35:38.945Z,100874.34
2022-09-23T06:38:05.562Z,100900.44
2022-09-23T06:40:32.229Z,100891.16
2022-09-23T06:43:00.757Z,100887.97
2022-09-23T06:45:27.947Z,100909.81
2022-09-23T06:47:55.798Z,100902.50
2022-09-23T06:50:22.730Z,100897.69
2022-09-23T06:52:53.415Z,100898.91
2022-09-23T06:55:19.791Z,100897.41
2022-09-23T06:57:46.193Z,100880.75
2022-09-23T07:00:13.311Z,100872.19
2022-09-23T07:02:41.092Z,100844.91
2022-09-23T07:05:08.657Z,100829.25
2022-09-23T07:07:35.711Z,100817.31
2022-09-23T07:10:02.335Z,100808.47
2022-09-23T07:12:28.697Z,100807.78
2022-09-23T07:14:55.171Z,100810.19
2022-09-23T07:17:21.525Z,100822.31
2022-09-23T07:19:47.857Z,100825.16
2022-09-23T07:22:14.331Z,100833.28
2022-09-23T07:24:40.758Z,100840.59
2022-09-23T07:27:08.418Z,100858.06
2022-09-23T07:29:45.766Z,100862.44
2022-09-23T07:32:14.639Z,100863.47
2022-09-23T07:34:41.471Z,100864.28
2022-09-23T07:37:09.295Z,100865.16
2022-09-23T07:39:40.257Z,100854.59
2022-09-23T07:42:12.285Z,100856.41
2022-09-23T07:44:39.361Z,100861.63
2022-09-23T07:47:08.208Z,100869.09
2022-09-23T07:49:35.611Z,100868.63
2022-09-23T07:52:07.216Z,100870.44
2022-09-23T07:54:33.593Z,100889.50
2022-09-23T07:57:00.355Z,100885.06
2022-09-23T07:59:26.739Z,100897.59
2022-09-23T08:01:54.036Z,100887.09
2022-09-23T08:04:29.897Z,100904.22
2022-09-23T08:06:59.195Z,100922.91
2022-09-23T08:09:45.842Z,100925.94
2022-09-23T08:12:16.348Z,100983.34
2022-09-23T08:14:43.185Z,101014.75
2022-09-23T08:17:09.723Z,101031.06
2022-09-23T08:19:36.168Z,101048.97
2022-09-23T08:22:02.603Z,101062.56
2022-09-23T08:24:29.141Z,101076.34
2022-09-23T08:26:57.939Z,101100.31
2022-09-23T08:29:25.883Z,101093.13
2022-09-23T08:31:53.577Z,101092.34
2022-09-23T08:34:21.890Z,101095.75
2022-09-23T08:36:48.324Z,101105.69
2022-09-23T08:39:17.290Z,101112.41
2022-09-23T08:42:11.576Z,101118.47
2022-09-23T08:44:49.535Z,101122.63
2022-09-23T08:47:18.229Z,101127.06
2022-09-23T08:49:50.452Z,101133.63
2022-09-23T08:52:28.954Z,101133.56
2022-09-23T08:54:55.726Z,101129.00
2022-09-23T08:57:41.613Z,101138.25
2022-09-23T09:00:17.161Z,101141.06
2022-09-23T09:02:43.789Z,101148.53
2022-09-23T09:05:12.766Z,101141.75
2022-09-23T09:07:45.629Z,101125.81
2022-09-23T09:10:36.611Z,101131.81
2022-09-23T09:13:11.045Z,101130.63
2022-09-23T09:16:02.411Z,101122.75
2022-09-23T09:18:38.013Z,101128.78
2022-09-23T09:21:18.710Z,101130.88
2022-09-23T09:23:56.689Z,101135.81
2022-09-23T09:26:36.136Z,101146.66
2022-09-23T09:29:34.432Z,101148.53
2022-09-23T09:32:16.733Z,101160.44
2022-09-23T09:35:02.010Z,101171.94
2022-09-23T09:37:43.392Z,101161.97
2022-09-23T09:40:18.828Z,101168.56
2022-09-23T09:42:53.064Z,101158.88
2022-09-23T09:45:43.554Z,101166.38
2022-09-23T09:48:25.709Z,101169.50
2022-09-23T09:50:59.576Z,101168.06
2022-09-23T09:53:34.922Z,101165.50
2022-09-23T09:56:06.382Z,101168.34
2022-09-23T09:58:48.940Z,101166.53
2022-09-23T10:01:51.378Z,101166.94
2022-09-23T10:04:38.593Z,101163.03
2022-09-23T10:07:26.186Z,101160.94
2022-09-23T10:09:58.330Z,101174.53
2022-09-23T10:12:47.041Z,101173.13
2022-09-23T10:15:32.463Z,101155.84
2022-09-23T10:17:59.896Z,101149.94
2022-09-23T10:20:35.750Z,101152.38
2022-09-23T10:23:12.903Z,101139.00
2022-09-23T10:25:42.793Z,101128.19
2022-09-23T10:28:39.567Z,101122.69
2022-09-23T10:31:22.381Z,101105.38
2022-09-23T10:33:56.279Z,101104.53
2022-09-23T10:36:26.251Z,101108.81
2022-09-23T10:38:59.879Z,101107.22
2022-09-23T10:41:43.329Z,101099.59
2022-09-23T10:44:20.043Z,101099.53
2022-09-23T10:47:04.261Z,101111.88
2022-09-23T10:49:49.318Z,101111.88
2022-09-23T10:52:56.990Z,101111.00
2022-09-23T10:55:48.026Z,101101.56
2022-09-23T10:58:28.577Z,101093.78
2022-09-23T11:00:55.172Z,101079.47
2022-09-23T11:03:37.570Z,101079.13
2022-09-23T11:06:09.664Z,101069.97
2022-09-23T11:08:54.155Z,101055.13
2022-09-23T11:11:23.687Z,101061.22
2022-09-23T11:14:02.257Z,101059.16
2022-09-23T11:16:45.735Z,101062.69
2022-09-23T11:19:18.104Z,101060.88
2022-09-23T11:22:06.452Z,101061.06
2022-09-23T11:24:57.921Z,101047.84
2022-09-23T11:27:39.775Z,101044.66
2022-09-23T11:30:12.832Z,101037.25
2022-09-23T11:33:12.888Z,101046.00
2022-09-23T11:35:52.441Z,101051.00
2022-09-23T11:38:39.285Z,101038.63
2022-09-23T11:41:30.603Z,101034.25
2022-09-23T11:44:06.841Z,101038.34
2022-09-23T11:46:40.131Z,101030.66
2022-09-23T11:49:33.756Z,101023.16
2022-09-23T11:52:08.414Z,101020.78
2022-09-23T11:55:19.399Z,101017.16
2022-09-23T11:57:55.032Z,101024.28
2022-09-23T12:00:28.076Z,101017.69
2022-09-23T12:03:07.533Z,101017.09
2022-09-23T12:06:01.548Z,101005.88
2022-09-23T12:08:39.920Z,101006.00
2022-09-23T12:11:19.641Z,101011.59
2022-09-23T12:14:23.239Z,100997.56
2022-09-23T12:17:14.854Z,100996.66
2022-09-23T12:20:18.490Z,100979.72
2022-09-23T12:22:58.722Z,100985.31
2022-09-23T12:26:25.412Z,100983.34
2022-09-23T12:29:02.237Z,100986.16
2022-09-23T12:35:10.461Z,100978.94
2022-09-23T12:37:58.638Z,100986.44
2022-09-23T12:40:46.823Z,100990.38
2022-09-23T12:43:38.739Z,100996.25
2022-09-23T12:46:26.304Z,100994.72
2022-09-23T12:48:57.411Z,100999.16
2022-09-23T12:51:25.877Z,100991.09
2022-09-23T12:54:17.196Z,100984.34
2022-09-23T12:57:03.969Z,100977.97
2022-09-23T13:00:11.543Z,100963.94
2022-09-23T13:02:49.791Z,100966.22
2022-09-23T13:05:38.178Z,100956.50
2022-09-23T13:08:27.032Z,100947.22
2022-09-23T13:11:07.881Z,100949.00
2022-09-23T13:13:47.232Z,100929.03
2022-09-23T13:16:27.418Z,100918.31
2022-09-23T13:19:04.664Z,100903.44
2022-09-23T13:21:45.614Z,100889.88
2022-09-23T13:24:25.615Z,100885.72
2022-09-23T13:27:21.753Z,100869.78
2022-09-23T13:30:27.104Z,100861.59
2022-09-23T13:33:04.929Z,100843.94
2022-09-23T13:35:54.337Z,100838.53
2022-09-23T13:38:25.041Z,100828.50
2022-09-23T13:41:02.396Z,100819.09
2022-09-23T13:43:37.603Z,100818.53
2022-09-23T13:46:18.434Z,100819.59
2022-09-23T13:48:47.318Z,100798.25
2022-09-23T13:51:26.031Z,100787.22
2022-09-23T13:53:54.567Z,100775.09
2022-09-23T13:56:22.115Z,100776.81
2022-09-23T13:58:50.982Z,100767.88
2022-09-23T14:01:34.458Z,100763.91
2022-09-23T14:04:05.191Z,100762.38
2022-09-23T14:06:37.905Z,100759.63
2022-09-23T14:09:06.467Z,100756.88
2022-09-23T14:11:47.529Z,100752.69
2022-09-23T14:14:16.411Z,100746.94
2022-09-23T14:16:45.640Z,100744.56
2022-09-23T14:19:22.373Z,100733.34
2022-09-23T14:21:59.477Z,100734.66
2022-09-23T14:24:36.737Z,100729.59
2022-09-23T14:27:06.126Z,100726.84
2022-09-23T14:29:42.008Z,100718.84
2022-09-23T14:32:18.675Z,100710.22
2022-09-23T14:35:00.506Z,100710.09
2022-09-23T14:37:29.879Z,100710.25
2022-09-23T14:39:57.879Z,100722.09
2022-09-23T14:42:24.617Z,100718.94
2022-09-23T14:44:51.009Z,100715.22
2022-09-23T14:47:17.524Z,100715.22
2022-09-23T14:49:49.670Z,100711.38
2022-09-23T14:52:16.864Z,100722.13
2022-09-23T14:54:46.413Z,100716.34
2022-09-23T14:57:27.242Z,100729.41
2022-09-23T15:00:09.847Z,100722.78
2022-09-23T15:03:06.113Z,100721.75
2022-09-23T15:05:44.439Z,100719.88
2022-09-23T15:08:39.493Z,100714.94
2022-09-23T15:11:08.207Z,100703.16
2022-09-23T15:13:40.295Z,100693.41
2022-09-23T15:16:07.686Z,100701.00
2022-09-23T15:18:46.152Z,100715.75
2022-09-23T15:21:19.441Z,100707.25
2022-09-23T15:23:52.088Z,100709.31
2022-09-23T15:26:39.964Z,100714.34
2022-09-23T15:29:10.241Z,100700.25
2022-09-23T15:31:36.909Z,100694.00
2022-09-23T15:34:03.885Z,100680.03
2022-09-23T15:36:30.330Z,100678.59
2022-09-23T15:39:02.008Z,100673.19
2022-09-23T15:41:30.449Z,100666.53
2022-09-23T15:43:57.078Z,100667.91
2022-09-23T15:46:31.158Z,100649.34
2022-09-23T15:49:04.959Z,100599.25
2022-09-23T15:51:31.475Z,100608.00
2022-09-23T15:53:57.928Z,100615.59
2022-09-23T15:56:25.141Z,100608.78
2022-09-23T15:58:52.847Z,100610.66
2022-09-23T16:01:31.591Z,100604.25
2022-09-23T16:03:58.282Z,100613.16
2022-09-23T16:06:24.725Z,100611.66
2022-09-23T16:08:51.250Z,100612.59
2022-09-23T16:11:19.786Z,100600.06
2022-09-23T16:13:46.448Z,100614.47
2022-09-23T16:16:12.996Z,100602.06
2022-09-23T16:18:39.584Z,100599.63
2022-09-23T16:21:06.275Z,100597.97
2022-09-23T16:23:38.810Z,100603.69
2022-09-23T16:26:19.439Z,100599.69
2022-09-23T16:28:47.475Z,100601.75
2022-09-23T16:31:14.763Z,100596.72
2022-09-23T16:33:42.178Z,100602.31
2022-09-23T16:36:32.298Z,100603.63
2022-09-23T16:39:00.737Z,100604.75
2022-09-23T16:41:29.037Z,100610.59
2022-09-23T16:43:55.961Z,100603.91
2022-09-23T16:46:22.793Z,100604.94
2022-09-23T16:48:52.939Z,100606.56
2022-09-23T16:51:27.891Z,100593.81
2022-09-23T16:53:58.494Z,100576.94
2022-09-23T16:56:28.614Z,100585.34
2022-09-23T16:58:56.605Z,100567.13
2022-09-23T17:01:25.705Z,100563.56
2022-09-23T17:03:52.528Z,100548.28
2022-09-23T17:06:19.059Z,100557.69
2022-09-23T17:08:46.652Z,100547.25
2022-09-23T17:11:12.999Z,100544.50
2022-09-23T17:13:39.419Z,100548.00
2022-09-23T17:16:06.023Z,100541.53
2022-09-23T17:18:32.467Z,100538.81
2022-09-23T17:21:04.785Z,100526.25
2022-09-23T17:23:33.534Z,100525.41
2022-09-23T17:25:59.972Z,100543.88
2022-09-23T17:28:26.623Z,100540.97
2022-09-23T17:31:01.055Z,100545.34
2022-09-23T17:33:29.753Z,100553.66
2022-09-23T17:35:57.284Z,100564.59
2022-09-23T17:38:28.719Z,100548.78
2022-09-23T17:40:57.901Z,100560.03
2022-09-23T17:43:24.273Z,100556.13
2022-09-23T17:45:55.779Z,100554.75
2022-09-23T17:48:23.755Z,100549.38
2022-09-23T17:51:19.592Z,100549.97
2022-09-23T17:53:47.238Z,100548.50
2022-09-23T17:56:14.895Z,100554.94
2022-09-23T17:58:41.891Z,100540.66
2022-09-23T18:01:10.667Z,100538.78
2022-09-23T18:03:38.125Z,100551.41
2022-09-23T18:06:13.766Z,100507.38
2022-09-23T18:08:42.346Z,100519.84
2022-09-23T18:11:18.216Z,100514.19
2022-09-23T18:13:49.292Z,100517.53
2022-09-23T18:16:16.196Z,100504.63
2022-09-23T18:18:42.696Z,100494.06
2022-09-23T18:21:09.183Z,100493.97
2022-09-23T18:23:36.635Z,100482.63
2022-09-23T18:26:04.133Z,100477.31
2022-09-23T18:28:34.684Z,100461.53
2022-09-23T18:31:01.404Z,100404.63
2022-09-23T18:33:27.801Z,100338.19
2022-09-23T18:35:54.158Z,100293.69
2022-09-23T18:38:20.617Z,100255.41
2022-09-23T18:40:54.431Z,100246.88
2022-09-23T18:43:25.945Z,100235.28
2022-09-23T18:46:00.485Z,100213.06
2022-09-23T18:48:28.542Z,100198.59
2022-09-23T18:50:54.946Z,100173.19
2022-09-23T18:53:21.471Z,100154.13
2022-09-23T18:55:47.823Z,100127.66
2022-09-23T18:58:14.393Z,100120.59
2022-09-23T19:00:40.965Z,100066.81
2022-09-23T19:03:07.455Z,100021.84
2022-09-23T19:05:34.177Z,99964.59
2022-09-23T19:08:00.843Z,99979.78
2022-09-23T19:10:27.192Z,99984.41
2022-09-23T19:12:53.533Z,99989.19
2022-09-23T19:15:19.944Z,99986.91
2022-09-23T19:17:46.437Z,99986.91
2022-09-23T19:20:12.890Z,99987.56
2022-09-23T19:22:39.468Z,99979.53
2022-09-23T19:25:06.570Z,99976.91
2022-09-23T19:27:33.279Z,99965.25
2022-09-23T19:29:59.715Z,99956.06
2022-09-23T19:32:26.158Z,99950.56
2022-09-23T19:34:52.722Z,99946.97
2022-09-23T19:37:21.481Z,99943.84
2022-09-23T19:39:47.982Z,99945.53
2022-09-23T19:42:14.414Z,99958.19
2022-09-23T19:44:40.871Z,99946.56
2022-09-23T19:47:07.517Z,99949.06
2022-09-23T19:49:33.925Z,99945.69
2022-09-23T19:52:00.552Z,99953.09
2022-09-23T19:54:27.176Z,99955.72
2022-09-23T19:56:54.206Z,99961.97
2022-09-23T19:59:20.740Z,99976.78
2022-09-23T20:01:48.618Z,99972.53
2022-09-23T20:04:15.796Z,99976.13
2022-09-23T20:06:42.535Z,99973.50
2022-09-23T20:09:09.030Z,99969.13
2022-09-23T20:11:35.539Z,99983.34
2022-09-23T20:14:03.131Z,99980.13
2022-09-23T20:16:32.835Z,99985.72
2022-09-23T20:19:00.347Z,99984.09
2022-09-23T20:21:27.652Z,99987.03
2022-09-23T20:23:54.104Z,99993.53
2022-09-23T20:26:20.451Z,100009.81
2022-09-23T20:28:47.101Z,100007.63
2022-09-23T20:31:14.565Z,100012.91
2022-09-23T20:33:41.088Z,100022.19
2022-09-23T20:36:11.729Z,100023.22
2022-09-23T20:38:38.340Z,100028.56
2022-09-23T20:41:04.814Z,100033.78
2022-09-23T20:43:31.240Z,100043.41
2022-09-23T20:45:57.786Z,100042.28
2022-09-23T20:48:24.473Z,100047.19
2022-09-23T20:50:50.857Z,100051.53
2022-09-23T20:53:18.753Z,100057.28
2022-09-23T20:55:52.587Z,100060.28
2022-09-23T20:58:19.682Z,100059.19
2022-09-23T21:00:46.252Z,100061.13
2022-09-23T21:03:13.653Z,100056.44
2022-09-23T21:05:40.260Z,100054.78
2022-09-23T21:08:06.714Z,100055.72
2022-09-23T21:10:33.151Z,100063.44
2022-09-23T21:12:59.944Z,100058.59
2022-09-23T21:15:26.684Z,100068.50
2022-09-23T21:17:53.318Z,100068.50
2022-09-23T21:20:19.936Z,100065.84
2022-09-23T21:22:49.728Z,100076.44
2022-09-23T21:25:27.536Z,100079.19
2022-09-23T21:27:54.842Z,100080.06
2022-09-23T21:30:21.232Z,100090.91
2022-09-23T21:32:47.660Z,100100.63
2022-09-23T21:35:16.770Z,100106.56
2022-09-23T21:37:43.196Z,100113.66
2022-09-23T21:40:10.117Z,100108.38
2022-09-23T21:42:36.868Z,100123.09
2022-09-23T21:45:03.460Z,100116.38
2022-09-23T21:47:29.894Z,100126.13
2022-09-23T21:49:56.560Z,100136.50
2022-09-23T21:52:23.058Z,100132.94
2022-09-23T21:55:02.239Z,100147.75
2022-09-23T21:57:45.186Z,100139.72
2022-09-23T22:00:12.146Z,100149.44
2022-09-23T22:02:38.591Z,100171.00
2022-09-23T22:05:06.259Z,100166.84
2022-09-23T22:07:35.908Z,100166.34
2022-09-23T22:10:02.428Z,100166.25
2022-09-23T22:12:28.836Z,100138.59
2022-09-23T22:14:55.371Z,100140.47
2022-09-23T22:17:21.881Z,100143.09
2022-09-23T22:19:48.409Z,100148.09
2022-09-23T22:22:17.365Z,100149.53
2022-09-23T22:24:45.818Z,100155.25
2022-09-23T22:27:14.200Z,100154.13
2022-09-23T22:29:40.673Z,100161.78
2022-09-23T22:32:10.836Z,100148.84
2022-09-23T22:34:49.621Z,100163.00
2022-09-23T22:37:20.091Z,100161.28
2022-09-23T22:39:46.771Z,100162.13
2022-09-23T22:42:13.569Z,100168.00
2022-09-23T22:44:40.197Z,100170.66
2022-09-23T22:47:07.212Z,100171.88
2022-09-23T22:49:33.689Z,100172.63
2022-09-23T22:52:01.239Z,100176.78
2022-09-23T22:54:33.402Z,100177.34
2022-09-23T22:57:00.851Z,100185.66
2022-09-23T22:59:27.387Z,100182.72
2022-09-23T23:01:53.884Z,100188.28
2022-09-23T23:04:21.632Z,100200.38
2022-09-23T23:06:47.990Z,100193.97
2022-09-23T23:09:20.160Z,100197.16
2022-09-23T23:11:46.783Z,100188.56
2022-09-23T23:14:16.005Z,100164.56
2022-09-23T23:16:43.361Z,100167.50
2022-09-23T23:19:11.849Z,100165.97
2022-09-23T23:21:38.347Z,100173.63
2022-09-23T23:24:05.249Z,100169.88
2022-09-23T23:26:33.806Z,100174.09
2022-09-23T23:29:01.507Z,100125.88
2022-09-23T23:31:29.205Z,100093.19
2022-09-23T23:33:55.685Z,100092.53
2022-09-23T23:36:25.843Z,100078.78
2022-09-23T23:38:52.275Z,100085.19
2022-09-23T23:41:21.036Z,100100.13
2022-09-23T23:43:49.590Z,100090.88
2022-09-23T23:46:16.051Z,100096.63
2022-09-23T23:48:42.759Z,100096.88
2022-09-23T23:51:11.092Z,100087.78
2022-09-23T23:53:39.985Z,100090.13
2022-09-23T23:56:09.750Z,100098.94
2022-09-23T23:58:36.569Z,100092.69
